sensor_id;sensor_type;location;lat;lon;timestamp;P1;durP1;ratioP1;P2;durP2;ratioP2
39694;SDS011;25367;-35.352;149.036;2022-10-16T00:01:41;1.92;;;0.50;;
39694;SDS011;25367;-35.352;149.036;2022-10-16T00:04:11;2.95;;;0.50;;
39694;SDS011;25367;-35.352;149.036;2022-10-16T00:06:43;2.55;;;0.68;;
39694;SDS011;25367;-35.352;149.036;2022-10-16T00:09:13;2.88;;;0.70;;
39694;SDS011;25367;-35.352;149.036;2022-10-16T00:11:42;3.95;;;0.73;;
39694;SDS011;25367;-35.352;149.036;2022-10-16T00:14:13;2.30;;;0.77;;
39694;SDS011;25367;-35.352;149.036;2022-10-16T00:16:43;3.55;;;0.50;;
39694;SDS011;25367;-35.352;149.036;2022-10-16T00:19:13;1.88;;;0.47;;
39694;SDS011;25367;-35.352;149.036;2022-10-16T00:21:45;3.72;;;0.50;;
39694;SDS011;25367;-35.352;149.036;2022-10-16T00:24:15;1.95;;;0.70;;
39694;SDS011;25367;-35.352;149.036;2022-10-16T00:26:44;1.67;;;0.50;;
39694;SDS011;25367;-35.352;149.036;2022-10-16T00:29:16;1.40;;;0.68;;
39694;SDS011;25367;-35.352;149.036;2022-10-16T00:31:46;2.45;;;0.52;;
39694;SDS011;25367;-35.352;149.036;2022-10-16T00:34:15;2.42;;;0.50;;
39694;SDS011;25367;-35.352;149.036;2022-10-16T00:36:47;3.45;;;0.50;;
39694;SDS011;25367;-35.352;149.036;2022-10-16T00:39:17;2.05;;;0.60;;
39694;SDS011;25367;-35.352;149.036;2022-10-16T00:41:48;3.45;;;0.70;;
39694;SDS011;25367;-35.352;149.036;2022-10-16T00:47:13;2.17;;;0.52;;
39694;SDS011;25367;-35.352;149.036;2022-10-16T00:49:47;1.35;;;0.30;;
39694;SDS011;25367;-35.352;149.036;2022-10-16T00:52:21;2.78;;;0.82;;
39694;SDS011;25367;-35.352;149.036;2022-10-16T00:54:51;4.32;;;0.60;;
39694;SDS011;25367;-35.352;149.036;2022-10-16T00:57:22;1.50;;;0.57;;
39694;SDS011;25367;-35.352;149.036;2022-10-16T00:59:52;3.83;;;0.45;;
39694;SDS011;25367;-35.352;149.036;2022-10-16T01:02:22;2.30;;;0.65;;
39694;SDS011;25367;-35.352;149.036;2022-10-16T01:04:52;0.80;;;0.43;;
39694;SDS011;25367;-35.352;149.036;2022-10-16T01:07:27;1.52;;;0.47;;
39694;SDS011;25367;-35.352;149.036;2022-10-16T01:10:08;0.90;;;0.40;;
39694;SDS011;25367;-35.352;149.036;2022-10-16T01:12:49;1.15;;;0.43;;
39694;SDS011;25367;-35.352;149.036;2022-10-16T01:15:25;1.85;;;0.47;;
39694;SDS011;25367;-35.352;149.036;2022-10-16T01:17:59;5.28;;;0.95;;
39694;SDS011;25367;-35.352;149.036;2022-10-16T01:20:33;3.30;;;0.77;;
39694;SDS011;25367;-35.352;149.036;2022-10-16T01:23:14;1.27;;;0.50;;
39694;SDS011;25367;-35.352;149.036;2022-10-16T01:26:01;1.00;;;0.30;;
39694;SDS011;25367;-35.352;149.036;2022-10-16T01:28:42;2.28;;;0.35;;
39694;SDS011;25367;-35.352;149.036;2022-10-16T01:31:17;1.38;;;0.50;;
39694;SDS011;25367;-35.352;149.036;2022-10-16T01:33:51;1.35;;;0.43;;
39694;SDS011;25367;-35.352;149.036;2022-10-16T01:36:28;1.95;;;0.60;;
39694;SDS011;25367;-35.352;149.036;2022-10-16T01:39:02;1.70;;;0.60;;
39694;SDS011;25367;-35.352;149.036;2022-10-16T01:41:35;0.73;;;0.30;;
39694;SDS011;25367;-35.352;149.036;2022-10-16T01:44:10;1.48;;;0.60;;
39694;SDS011;25367;-35.352;149.036;2022-10-16T01:46:46;3.88;;;0.75;;
39694;SDS011;25367;-35.352;149.036;2022-10-16T01:51:49;0.75;;;0.40;;
39694;SDS011;25367;-35.352;149.036;2022-10-16T01:54:23;1.33;;;0.40;;
39694;SDS011;25367;-35.352;149.036;2022-10-16T01:59:27;0.95;;;0.30;;
39694;SDS011;25367;-35.352;149.036;2022-10-16T02:02:01;2.13;;;0.68;;
39694;SDS011;25367;-35.352;149.036;2022-10-16T02:04:38;1.38;;;0.45;;
39694;SDS011;25367;-35.352;149.036;2022-10-16T02:07:11;2.40;;;0.60;;
39694;SDS011;25367;-35.352;149.036;2022-10-16T02:09:41;1.50;;;0.47;;
39694;SDS011;25367;-35.352;149.036;2022-10-16T02:12:11;0.73;;;0.30;;
39694;SDS011;25367;-35.352;149.036;2022-10-16T02:14:48;2.17;;;0.50;;
39694;SDS011;25367;-35.352;149.036;2022-10-16T02:17:17;2.17;;;0.68;;
39694;SDS011;25367;-35.352;149.036;2022-10-16T02:19:47;2.60;;;0.50;;
39694;SDS011;25367;-35.352;149.036;2022-10-16T02:22:22;0.90;;;0.40;;
39694;SDS011;25367;-35.352;149.036;2022-10-16T02:24:56;2.72;;;0.57;;
39694;SDS011;25367;-35.352;149.036;2022-10-16T02:27:31;1.48;;;0.43;;
39694;SDS011;25367;-35.352;149.036;2022-10-16T02:30:06;0.95;;;0.30;;
39694;SDS011;25367;-35.352;149.036;2022-10-16T02:32:41;0.57;;;0.30;;
39694;SDS011;25367;-35.352;149.036;2022-10-16T02:35:12;1.40;;;0.43;;
39694;SDS011;25367;-35.352;149.036;2022-10-16T02:37:44;0.70;;;0.30;;
39694;SDS011;25367;-35.352;149.036;2022-10-16T02:40:14;1.40;;;0.40;;
39694;SDS011;25367;-35.352;149.036;2022-10-16T02:42:44;0.47;;;0.30;;
39694;SDS011;25367;-35.352;149.036;2022-10-16T02:45:20;0.75;;;0.30;;
39694;SDS011;25367;-35.352;149.036;2022-10-16T02:47:50;0.68;;;0.30;;
39694;SDS011;25367;-35.352;149.036;2022-10-16T02:50:20;1.65;;;0.65;;
39694;SDS011;25367;-35.352;149.036;2022-10-16T02:52:49;1.55;;;0.50;;
39694;SDS011;25367;-35.352;149.036;2022-10-16T02:55:18;1.50;;;0.38;;
39694;SDS011;25367;-35.352;149.036;2022-10-16T02:57:48;1.58;;;0.52;;
39694;SDS011;25367;-35.352;149.036;2022-10-16T03:00:19;4.82;;;0.63;;
39694;SDS011;25367;-35.352;149.036;2022-10-16T03:02:49;6.32;;;1.10;;
39694;SDS011;25367;-35.352;149.036;2022-10-16T03:05:18;5.75;;;1.00;;
39694;SDS011;25367;-35.352;149.036;2022-10-16T03:07:47;5.50;;;0.88;;
39694;SDS011;25367;-35.352;149.036;2022-10-16T03:10:17;5.60;;;0.75;;
39694;SDS011;25367;-35.352;149.036;2022-10-16T03:12:46;3.88;;;0.52;;
39694;SDS011;25367;-35.352;149.036;2022-10-16T03:15:16;3.90;;;0.70;;
39694;SDS011;25367;-35.352;149.036;2022-10-16T03:17:47;5.55;;;1.25;;
39694;SDS011;25367;-35.352;149.036;2022-10-16T03:20:16;2.58;;;0.57;;
39694;SDS011;25367;-35.352;149.036;2022-10-16T03:22:46;3.92;;;0.80;;
39694;SDS011;25367;-35.352;149.036;2022-10-16T03:25:15;2.53;;;0.50;;
39694;SDS011;25367;-35.352;149.036;2022-10-16T03:27:44;6.82;;;0.63;;
39694;SDS011;25367;-35.352;149.036;2022-10-16T03:30:14;1.83;;;0.50;;
39694;SDS011;25367;-35.352;149.036;2022-10-16T03:32:45;5.88;;;0.38;;
39694;SDS011;25367;-35.352;149.036;2022-10-16T03:35:15;2.42;;;0.63;;
39694;SDS011;25367;-35.352;149.036;2022-10-16T03:37:45;1.73;;;0.30;;
39694;SDS011;25367;-35.352;149.036;2022-10-16T03:40:19;3.38;;;0.70;;
39694;SDS011;25367;-35.352;149.036;2022-10-16T03:42:49;3.05;;;0.45;;
39694;SDS011;25367;-35.352;149.036;2022-10-16T03:45:20;4.40;;;0.50;;
39694;SDS011;25367;-35.352;149.036;2022-10-16T03:47:54;3.75;;;0.57;;
39694;SDS011;25367;-35.352;149.036;2022-10-16T03:50:24;2.38;;;0.50;;
39694;SDS011;25367;-35.352;149.036;2022-10-16T03:52:53;7.43;;;0.70;;
39694;SDS011;25367;-35.352;149.036;2022-10-16T03:55:24;2.97;;;0.30;;
39694;SDS011;25367;-35.352;149.036;2022-10-16T03:57:54;2.33;;;0.60;;
39694;SDS011;25367;-35.352;149.036;2022-10-16T04:00:24;4.32;;;1.08;;
39694;SDS011;25367;-35.352;149.036;2022-10-16T04:02:58;2.65;;;0.65;;
39694;SDS011;25367;-35.352;149.036;2022-10-16T04:05:28;3.25;;;0.40;;
39694;SDS011;25367;-35.352;149.036;2022-10-16T04:07:58;3.33;;;0.57;;
39694;SDS011;25367;-35.352;149.036;2022-10-16T04:10:28;4.80;;;0.65;;
39694;SDS011;25367;-35.352;149.036;2022-10-16T04:12:59;7.53;;;0.70;;
39694;SDS011;25367;-35.352;149.036;2022-10-16T04:15:29;2.40;;;0.47;;
39694;SDS011;25367;-35.352;149.036;2022-10-16T04:18:00;1.23;;;0.50;;
39694;SDS011;25367;-35.352;149.036;2022-10-16T04:20:31;2.88;;;0.47;;
39694;SDS011;25367;-35.352;149.036;2022-10-16T04:23:01;1.65;;;0.50;;
39694;SDS011;25367;-35.352;149.036;2022-10-16T04:25:31;2.28;;;0.93;;
39694;SDS011;25367;-35.352;149.036;2022-10-16T04:28:01;5.85;;;0.65;;
39694;SDS011;25367;-35.352;149.036;2022-10-16T04:30:31;3.45;;;0.70;;
39694;SDS011;25367;-35.352;149.036;2022-10-16T04:33:03;1.23;;;0.45;;
39694;SDS011;25367;-35.352;149.036;2022-10-16T04:35:33;2.10;;;0.57;;
39694;SDS011;25367;-35.352;149.036;2022-10-16T04:38:03;1.70;;;0.38;;
39694;SDS011;25367;-35.352;149.036;2022-10-16T04:40:33;2.97;;;0.50;;
39694;SDS011;25367;-35.352;149.036;2022-10-16T04:43:03;3.95;;;0.60;;
39694;SDS011;25367;-35.352;149.036;2022-10-16T04:45:34;0.93;;;0.40;;
39694;SDS011;25367;-35.352;149.036;2022-10-16T04:48:06;2.80;;;0.60;;
39694;SDS011;25367;-35.352;149.036;2022-10-16T04:50:36;0.57;;;0.30;;
39694;SDS011;25367;-35.352;149.036;2022-10-16T04:53:06;1.60;;;0.57;;
39694;SDS011;25367;-35.352;149.036;2022-10-16T04:55:37;0.73;;;0.30;;
39694;SDS011;25367;-35.352;149.036;2022-10-16T04:58:07;2.17;;;0.50;;
39694;SDS011;25367;-35.352;149.036;2022-10-16T05:00:38;2.15;;;0.50;;
39694;SDS011;25367;-35.352;149.036;2022-10-16T05:03:10;1.90;;;0.40;;
39694;SDS011;25367;-35.352;149.036;2022-10-16T05:05:42;0.93;;;0.43;;
39694;SDS011;25367;-35.352;149.036;2022-10-16T05:08:16;2.58;;;0.47;;
39694;SDS011;25367;-35.352;149.036;2022-10-16T05:10:46;2.08;;;0.50;;
39694;SDS011;25367;-35.352;149.036;2022-10-16T05:13:16;2.92;;;0.50;;
39694;SDS011;25367;-35.352;149.036;2022-10-16T05:15:47;4.03;;;0.98;;
39694;SDS011;25367;-35.352;149.036;2022-10-16T05:18:20;0.85;;;0.30;;
39694;SDS011;25367;-35.352;149.036;2022-10-16T05:20:50;1.58;;;0.68;;
39694;SDS011;25367;-35.352;149.036;2022-10-16T05:23:22;0.80;;;0.35;;
39694;SDS011;25367;-35.352;149.036;2022-10-16T05:25:52;1.27;;;0.57;;
39694;SDS011;25367;-35.352;149.036;2022-10-16T05:28:23;1.85;;;0.60;;
39694;SDS011;25367;-35.352;149.036;2022-10-16T05:30:54;2.08;;;0.40;;
39694;SDS011;25367;-35.352;149.036;2022-10-16T05:33:29;1.15;;;0.28;;
39694;SDS011;25367;-35.352;149.036;2022-10-16T05:36:01;14.00;;;1.45;;
39694;SDS011;25367;-35.352;149.036;2022-10-16T05:38:31;4.60;;;0.80;;
39694;SDS011;25367;-35.352;149.036;2022-10-16T05:41:01;5.25;;;1.17;;
39694;SDS011;25367;-35.352;149.036;2022-10-16T05:43:32;6.53;;;1.13;;
39694;SDS011;25367;-35.352;149.036;2022-10-16T05:46:02;6.03;;;1.00;;
39694;SDS011;25367;-35.352;149.036;2022-10-16T05:48:35;3.67;;;0.93;;
39694;SDS011;25367;-35.352;149.036;2022-10-16T05:51:05;3.55;;;0.88;;
39694;SDS011;25367;-35.352;149.036;2022-10-16T05:53:37;8.93;;;1.10;;
39694;SDS011;25367;-35.352;149.036;2022-10-16T05:56:09;2.78;;;0.82;;
39694;SDS011;25367;-35.352;149.036;2022-10-16T05:58:39;6.13;;;0.70;;
39694;SDS011;25367;-35.352;149.036;2022-10-16T06:01:10;13.73;;;1.55;;
39694;SDS011;25367;-35.352;149.036;2022-10-16T06:03:45;15.93;;;1.75;;
39694;SDS011;25367;-35.352;149.036;2022-10-16T06:06:15;8.07;;;1.40;;
39694;SDS011;25367;-35.352;149.036;2022-10-16T06:08:46;7.05;;;0.90;;
39694;SDS011;25367;-35.352;149.036;2022-10-16T06:11:17;4.03;;;0.90;;
39694;SDS011;25367;-35.352;149.036;2022-10-16T06:13:49;4.00;;;0.65;;
39694;SDS011;25367;-35.352;149.036;2022-10-16T06:16:20;6.25;;;1.05;;
39694;SDS011;25367;-35.352;149.036;2022-10-16T06:18:52;4.10;;;1.05;;
39694;SDS011;25367;-35.352;149.036;2022-10-16T06:21:24;5.93;;;1.00;;
39694;SDS011;25367;-35.352;149.036;2022-10-16T06:23:55;6.38;;;0.98;;
39694;SDS011;25367;-35.352;149.036;2022-10-16T06:26:26;6.65;;;1.15;;
39694;SDS011;25367;-35.352;149.036;2022-10-16T06:28:58;2.78;;;0.90;;
39694;SDS011;25367;-35.352;149.036;2022-10-16T06:31:29;5.40;;;1.08;;
39694;SDS011;25367;-35.352;149.036;2022-10-16T06:34:03;4.82;;;0.75;;
39694;SDS011;25367;-35.352;149.036;2022-10-16T06:36:32;3.28;;;0.70;;
39694;SDS011;25367;-35.352;149.036;2022-10-16T06:39:02;6.78;;;0.95;;
39694;SDS011;25367;-35.352;149.036;2022-10-16T06:41:33;5.22;;;1.02;;
39694;SDS011;25367;-35.352;149.036;2022-10-16T06:44:15;8.18;;;0.70;;
39694;SDS011;25367;-35.352;149.036;2022-10-16T06:46:46;3.78;;;0.68;;
39694;SDS011;25367;-35.352;149.036;2022-10-16T06:49:17;5.00;;;0.95;;
39694;SDS011;25367;-35.352;149.036;2022-10-16T06:51:47;3.85;;;0.70;;
39694;SDS011;25367;-35.352;149.036;2022-10-16T06:54:17;3.67;;;1.00;;
39694;SDS011;25367;-35.352;149.036;2022-10-16T06:56:47;5.53;;;1.33;;
39694;SDS011;25367;-35.352;149.036;2022-10-16T06:59:18;18.35;;;2.63;;
39694;SDS011;25367;-35.352;149.036;2022-10-16T07:01:49;13.93;;;1.80;;
39694;SDS011;25367;-35.352;149.036;2022-10-16T07:04:21;14.38;;;1.67;;
39694;SDS011;25367;-35.352;149.036;2022-10-16T07:06:51;11.07;;;1.63;;
39694;SDS011;25367;-35.352;149.036;2022-10-16T07:09:21;13.93;;;1.52;;
39694;SDS011;25367;-35.352;149.036;2022-10-16T07:11:51;5.80;;;1.42;;
39694;SDS011;25367;-35.352;149.036;2022-10-16T07:14:21;6.53;;;1.48;;
39694;SDS011;25367;-35.352;149.036;2022-10-16T07:16:50;9.80;;;1.92;;
39694;SDS011;25367;-35.352;149.036;2022-10-16T07:19:22;8.35;;;1.90;;
39694;SDS011;25367;-35.352;149.036;2022-10-16T07:21:51;6.22;;;1.23;;
39694;SDS011;25367;-35.352;149.036;2022-10-16T07:24:21;12.13;;;1.20;;
39694;SDS011;25367;-35.352;149.036;2022-10-16T07:26:51;3.65;;;1.00;;
39694;SDS011;25367;-35.352;149.036;2022-10-16T07:29:21;11.15;;;1.13;;
39694;SDS011;25367;-35.352;149.036;2022-10-16T07:31:50;5.05;;;1.40;;
39694;SDS011;25367;-35.352;149.036;2022-10-16T07:34:22;6.40;;;1.10;;
39694;SDS011;25367;-35.352;149.036;2022-10-16T07:36:51;8.73;;;1.48;;
39694;SDS011;25367;-35.352;149.036;2022-10-16T07:39:21;5.18;;;0.98;;
39694;SDS011;25367;-35.352;149.036;2022-10-16T07:41:51;7.35;;;1.20;;
39694;SDS011;25367;-35.352;149.036;2022-10-16T07:44:20;8.40;;;2.13;;
39694;SDS011;25367;-35.352;149.036;2022-10-16T07:46:49;8.45;;;1.40;;
39694;SDS011;25367;-35.352;149.036;2022-10-16T07:49:19;10.98;;;1.25;;
39694;SDS011;25367;-35.352;149.036;2022-10-16T07:51:50;5.47;;;1.13;;
39694;SDS011;25367;-35.352;149.036;2022-10-16T07:54:19;9.38;;;1.90;;
39694;SDS011;25367;-35.352;149.036;2022-10-16T07:56:49;6.80;;;1.17;;
39694;SDS011;25367;-35.352;149.036;2022-10-16T07:59:18;10.80;;;1.38;;
39694;SDS011;25367;-35.352;149.036;2022-10-16T08:01:49;9.65;;;1.50;;
39694;SDS011;25367;-35.352;149.036;2022-10-16T08:04:18;10.85;;;2.10;;
39694;SDS011;25367;-35.352;149.036;2022-10-16T08:06:49;8.93;;;1.40;;
39694;SDS011;25367;-35.352;149.036;2022-10-16T08:09:18;9.15;;;1.38;;
39694;SDS011;25367;-35.352;149.036;2022-10-16T08:11:48;13.55;;;2.22;;
39694;SDS011;25367;-35.352;149.036;2022-10-16T08:14:17;12.40;;;2.35;;
39694;SDS011;25367;-35.352;149.036;2022-10-16T08:16:47;12.57;;;1.52;;
39694;SDS011;25367;-35.352;149.036;2022-10-16T08:19:16;8.02;;;1.40;;
39694;SDS011;25367;-35.352;149.036;2022-10-16T08:21:47;9.50;;;1.80;;
39694;SDS011;25367;-35.352;149.036;2022-10-16T08:24:20;48.83;;;6.07;;
39694;SDS011;25367;-35.352;149.036;2022-10-16T08:26:49;26.42;;;4.72;;
39694;SDS011;25367;-35.352;149.036;2022-10-16T08:29:21;17.17;;;4.25;;
39694;SDS011;25367;-35.352;149.036;2022-10-16T08:31:50;12.73;;;4.13;;
39694;SDS011;25367;-35.352;149.036;2022-10-16T08:34:19;12.48;;;3.42;;
39694;SDS011;25367;-35.352;149.036;2022-10-16T08:36:52;13.48;;;3.33;;
39694;SDS011;25367;-35.352;149.036;2022-10-16T08:39:22;15.27;;;3.60;;
39694;SDS011;25367;-35.352;149.036;2022-10-16T08:41:57;14.85;;;3.30;;
39694;SDS011;25367;-35.352;149.036;2022-10-16T08:44:50;12.38;;;3.28;;
39694;SDS011;25367;-35.352;149.036;2022-10-16T08:47:53;16.08;;;3.00;;
39694;SDS011;25367;-35.352;149.036;2022-10-16T08:50:31;11.63;;;3.00;;
39694;SDS011;25367;-35.352;149.036;2022-10-16T08:55:41;13.68;;;2.60;;
39694;SDS011;25367;-35.352;149.036;2022-10-16T08:58:13;14.23;;;3.70;;
39694;SDS011;25367;-35.352;149.036;2022-10-16T09:00:44;30.65;;;4.18;;
39694;SDS011;25367;-35.352;149.036;2022-10-16T09:03:22;21.67;;;2.72;;
39694;SDS011;25367;-35.352;149.036;2022-10-16T09:06:02;21.08;;;2.45;;
39694;SDS011;25367;-35.352;149.036;2022-10-16T09:08:42;25.30;;;3.20;;
39694;SDS011;25367;-35.352;149.036;2022-10-16T09:11:22;15.20;;;3.17;;
39694;SDS011;25367;-35.352;149.036;2022-10-16T09:13:59;12.23;;;1.90;;
39694;SDS011;25367;-35.352;149.036;2022-10-16T09:16:34;16.00;;;1.80;;
39694;SDS011;25367;-35.352;149.036;2022-10-16T09:19:12;20.80;;;2.60;;
39694;SDS011;25367;-35.352;149.036;2022-10-16T09:21:45;22.13;;;2.50;;
39694;SDS011;25367;-35.352;149.036;2022-10-16T09:24:17;12.65;;;1.95;;
39694;SDS011;25367;-35.352;149.036;2022-10-16T09:26:47;13.10;;;1.45;;
39694;SDS011;25367;-35.352;149.036;2022-10-16T09:29:18;13.82;;;1.58;;
39694;SDS011;25367;-35.352;149.036;2022-10-16T09:31:52;14.23;;;1.80;;
39694;SDS011;25367;-35.352;149.036;2022-10-16T09:34:24;12.18;;;1.80;;
39694;SDS011;25367;-35.352;149.036;2022-10-16T09:36:58;11.05;;;1.50;;
39694;SDS011;25367;-35.352;149.036;2022-10-16T09:39:30;9.10;;;1.63;;
39694;SDS011;25367;-35.352;149.036;2022-10-16T09:42:11;7.68;;;1.88;;
39694;SDS011;25367;-35.352;149.036;2022-10-16T09:44:42;9.65;;;1.48;;
39694;SDS011;25367;-35.352;149.036;2022-10-16T09:47:17;7.78;;;1.63;;
39694;SDS011;25367;-35.352;149.036;2022-10-16T09:49:51;7.57;;;1.55;;
39694;SDS011;25367;-35.352;149.036;2022-10-16T09:54:52;7.70;;;1.48;;
39694;SDS011;25367;-35.352;149.036;2022-10-16T09:57:23;9.77;;;1.80;;
39694;SDS011;25367;-35.352;149.036;2022-10-16T09:59:52;4.43;;;1.02;;
39694;SDS011;25367;-35.352;149.036;2022-10-16T10:02:27;6.03;;;1.85;;
39694;SDS011;25367;-35.352;149.036;2022-10-16T10:04:58;7.45;;;0.98;;
39694;SDS011;25367;-35.352;149.036;2022-10-16T10:07:28;9.48;;;1.42;;
39694;SDS011;25367;-35.352;149.036;2022-10-16T10:10:03;11.57;;;1.27;;
39694;SDS011;25367;-35.352;149.036;2022-10-16T10:12:33;6.38;;;1.48;;
39694;SDS011;25367;-35.352;149.036;2022-10-16T10:15:12;7.95;;;1.40;;
39694;SDS011;25367;-35.352;149.036;2022-10-16T10:17:45;8.23;;;1.73;;
39694;SDS011;25367;-35.352;149.036;2022-10-16T10:20:22;13.75;;;1.63;;
39694;SDS011;25367;-35.352;149.036;2022-10-16T10:22:53;7.47;;;1.90;;
39694;SDS011;25367;-35.352;149.036;2022-10-16T10:25:28;9.02;;;1.60;;
39694;SDS011;25367;-35.352;149.036;2022-10-16T10:28:23;8.40;;;1.55;;
39694;SDS011;25367;-35.352;149.036;2022-10-16T10:31:14;13.95;;;1.35;;
39694;SDS011;25367;-35.352;149.036;2022-10-16T10:33:48;8.73;;;1.27;;
39694;SDS011;25367;-35.352;149.036;2022-10-16T10:36:25;6.32;;;1.48;;
39694;SDS011;25367;-35.352;149.036;2022-10-16T10:38:57;6.47;;;1.70;;
39694;SDS011;25367;-35.352;149.036;2022-10-16T10:41:38;6.50;;;0.82;;
39694;SDS011;25367;-35.352;149.036;2022-10-16T10:44:29;8.82;;;0.85;;
39694;SDS011;25367;-35.352;149.036;2022-10-16T10:47:25;5.38;;;1.55;;
39694;SDS011;25367;-35.352;149.036;2022-10-16T10:50:05;8.15;;;1.10;;
39694;SDS011;25367;-35.352;149.036;2022-10-16T10:52:49;10.30;;;1.20;;
39694;SDS011;25367;-35.352;149.036;2022-10-16T10:55:30;3.67;;;0.80;;
39694;SDS011;25367;-35.352;149.036;2022-10-16T10:58:23;3.22;;;0.80;;
39694;SDS011;25367;-35.352;149.036;2022-10-16T11:01:13;4.65;;;1.15;;
39694;SDS011;25367;-35.352;149.036;2022-10-16T11:03:57;4.95;;;1.10;;
39694;SDS011;25367;-35.352;149.036;2022-10-16T11:06:42;4.85;;;1.58;;
39694;SDS011;25367;-35.352;149.036;2022-10-16T11:09:15;9.13;;;1.30;;
39694;SDS011;25367;-35.352;149.036;2022-10-16T11:11:49;7.30;;;1.50;;
39694;SDS011;25367;-35.352;149.036;2022-10-16T11:16:54;7.05;;;0.90;;
39694;SDS011;25367;-35.352;149.036;2022-10-16T11:19:31;10.13;;;1.40;;
39694;SDS011;25367;-35.352;149.036;2022-10-16T11:22:09;3.97;;;1.00;;
39694;SDS011;25367;-35.352;149.036;2022-10-16T11:24:45;3.25;;;1.02;;
39694;SDS011;25367;-35.352;149.036;2022-10-16T11:27:21;6.15;;;0.85;;
39694;SDS011;25367;-35.352;149.036;2022-10-16T11:29:57;6.72;;;1.10;;
39694;SDS011;25367;-35.352;149.036;2022-10-16T11:32:29;4.38;;;0.80;;
39694;SDS011;25367;-35.352;149.036;2022-10-16T11:35:05;4.88;;;1.13;;
39694;SDS011;25367;-35.352;149.036;2022-10-16T11:37:42;2.83;;;0.70;;
39694;SDS011;25367;-35.352;149.036;2022-10-16T11:40:19;4.30;;;0.75;;
39694;SDS011;25367;-35.352;149.036;2022-10-16T11:42:54;5.88;;;1.00;;
39694;SDS011;25367;-35.352;149.036;2022-10-16T11:45:33;6.68;;;1.25;;
39694;SDS011;25367;-35.352;149.036;2022-10-16T11:48:08;7.32;;;1.10;;
39694;SDS011;25367;-35.352;149.036;2022-10-16T11:50:48;6.70;;;0.95;;
39694;SDS011;25367;-35.352;149.036;2022-10-16T11:53:23;8.13;;;1.20;;
39694;SDS011;25367;-35.352;149.036;2022-10-16T11:56:06;6.47;;;1.17;;
39694;SDS011;25367;-35.352;149.036;2022-10-16T11:58:40;11.43;;;1.40;;
39694;SDS011;25367;-35.352;149.036;2022-10-16T12:01:21;4.10;;;0.60;;
39694;SDS011;25367;-35.352;149.036;2022-10-16T12:03:58;4.50;;;1.00;;
39694;SDS011;25367;-35.352;149.036;2022-10-16T12:06:40;6.65;;;1.40;;
39694;SDS011;25367;-35.352;149.036;2022-10-16T12:09:13;8.03;;;1.33;;
39694;SDS011;25367;-35.352;149.036;2022-10-16T12:11:47;4.60;;;0.95;;
39694;SDS011;25367;-35.352;149.036;2022-10-16T12:14:21;3.28;;;1.05;;
39694;SDS011;25367;-35.352;149.036;2022-10-16T12:20:00;5.90;;;1.40;;
39694;SDS011;25367;-35.352;149.036;2022-10-16T12:22:47;9.40;;;1.17;;
39694;SDS011;25367;-35.352;149.036;2022-10-16T12:25:20;5.47;;;1.15;;
39694;SDS011;25367;-35.352;149.036;2022-10-16T12:27:55;1.77;;;0.73;;
39694;SDS011;25367;-35.352;149.036;2022-10-16T12:30:32;5.10;;;0.95;;
39694;SDS011;25367;-35.352;149.036;2022-10-16T12:33:05;15.15;;;0.93;;
39694;SDS011;25367;-35.352;149.036;2022-10-16T12:35:46;4.43;;;1.08;;
39694;SDS011;25367;-35.352;149.036;2022-10-16T12:38:16;6.80;;;0.75;;
39694;SDS011;25367;-35.352;149.036;2022-10-16T12:40:53;2.63;;;0.73;;
39694;SDS011;25367;-35.352;149.036;2022-10-16T12:49:22;12.20;;;1.00;;
39694;SDS011;25367;-35.352;149.036;2022-10-16T12:51:58;4.07;;;0.80;;
39694;SDS011;25367;-35.352;149.036;2022-10-16T12:54:28;7.70;;;0.95;;
39694;SDS011;25367;-35.352;149.036;2022-10-16T12:57:17;9.43;;;0.90;;
39694;SDS011;25367;-35.352;149.036;2022-10-16T12:59:59;8.25;;;0.98;;
39694;SDS011;25367;-35.352;149.036;2022-10-16T13:06:00;1.40;;;0.47;;
39694;SDS011;25367;-35.352;149.036;2022-10-16T13:08:40;4.60;;;0.90;;
39694;SDS011;25367;-35.352;149.036;2022-10-16T13:11:38;3.15;;;0.68;;
39694;SDS011;25367;-35.352;149.036;2022-10-16T13:14:39;2.35;;;0.77;;
39694;SDS011;25367;-35.352;149.036;2022-10-16T13:17:35;2.15;;;0.65;;
39694;SDS011;25367;-35.352;149.036;2022-10-16T13:20:12;2.60;;;0.60;;
39694;SDS011;25367;-35.352;149.036;2022-10-16T13:22:54;1.95;;;0.57;;
39694;SDS011;25367;-35.352;149.036;2022-10-16T13:25:34;2.00;;;0.73;;
39694;SDS011;25367;-35.352;149.036;2022-10-16T13:28:12;2.03;;;0.60;;
39694;SDS011;25367;-35.352;149.036;2022-10-16T13:30:42;4.03;;;0.70;;
39694;SDS011;25367;-35.352;149.036;2022-10-16T13:33:19;2.03;;;0.68;;
39694;SDS011;25367;-35.352;149.036;2022-10-16T13:35:54;8.55;;;1.10;;
39694;SDS011;25367;-35.352;149.036;2022-10-16T13:38:26;2.70;;;0.60;;
39694;SDS011;25367;-35.352;149.036;2022-10-16T13:40:58;6.95;;;1.00;;
39694;SDS011;25367;-35.352;149.036;2022-10-16T13:43:28;1.90;;;0.70;;
39694;SDS011;25367;-35.352;149.036;2022-10-16T13:46:02;1.38;;;0.47;;
39694;SDS011;25367;-35.352;149.036;2022-10-16T13:48:32;5.80;;;0.73;;
39694;SDS011;25367;-35.352;149.036;2022-10-16T13:51:06;3.20;;;0.70;;
39694;SDS011;25367;-35.352;149.036;2022-10-16T13:53:41;2.88;;;0.68;;
39694;SDS011;25367;-35.352;149.036;2022-10-16T13:56:12;2.08;;;0.68;;
39694;SDS011;25367;-35.352;149.036;2022-10-16T13:58:43;2.20;;;0.55;;
39694;SDS011;25367;-35.352;149.036;2022-10-16T14:01:15;1.25;;;0.65;;
39694;SDS011;25367;-35.352;149.036;2022-10-16T14:03:47;3.20;;;0.70;;
39694;SDS011;25367;-35.352;149.036;2022-10-16T14:06:18;3.13;;;0.50;;
39694;SDS011;25367;-35.352;149.036;2022-10-16T14:08:53;1.88;;;0.63;;
39694;SDS011;25367;-35.352;149.036;2022-10-16T14:11:28;1.05;;;0.30;;
39694;SDS011;25367;-35.352;149.036;2022-10-16T14:13:58;1.55;;;0.40;;
39694;SDS011;25367;-35.352;149.036;2022-10-16T14:16:28;2.15;;;0.32;;
39694;SDS011;25367;-35.352;149.036;2022-10-16T14:18:59;2.13;;;0.75;;
39694;SDS011;25367;-35.352;149.036;2022-10-16T14:21:30;1.35;;;0.40;;
39694;SDS011;25367;-35.352;149.036;2022-10-16T14:24:01;2.47;;;0.73;;
39694;SDS011;25367;-35.352;149.036;2022-10-16T14:26:41;0.80;;;0.35;;
39694;SDS011;25367;-35.352;149.036;2022-10-16T14:29:13;4.13;;;0.50;;
39694;SDS011;25367;-35.352;149.036;2022-10-16T14:31:54;2.72;;;0.68;;
39694;SDS011;25367;-35.352;149.036;2022-10-16T14:34:24;2.30;;;0.60;;
39694;SDS011;25367;-35.352;149.036;2022-10-16T14:36:55;6.10;;;0.60;;
39694;SDS011;25367;-35.352;149.036;2022-10-16T14:39:27;3.50;;;0.68;;
39694;SDS011;25367;-35.352;149.036;2022-10-16T14:41:57;1.00;;;0.40;;
39694;SDS011;25367;-35.352;149.036;2022-10-16T14:44:28;1.98;;;0.50;;
39694;SDS011;25367;-35.352;149.036;2022-10-16T14:47:06;1.38;;;0.50;;
39694;SDS011;25367;-35.352;149.036;2022-10-16T14:49:40;3.20;;;0.63;;
39694;SDS011;25367;-35.352;149.036;2022-10-16T14:52:10;1.65;;;0.43;;
39694;SDS011;25367;-35.352;149.036;2022-10-16T14:54:42;1.85;;;0.32;;
39694;SDS011;25367;-35.352;149.036;2022-10-16T14:57:16;2.25;;;0.50;;
39694;SDS011;25367;-35.352;149.036;2022-10-16T14:59:47;3.00;;;0.32;;
39694;SDS011;25367;-35.352;149.036;2022-10-16T15:02:20;1.45;;;0.45;;
39694;SDS011;25367;-35.352;149.036;2022-10-16T15:04:54;0.50;;;0.20;;
39694;SDS011;25367;-35.352;149.036;2022-10-16T15:07:24;0.47;;;0.30;;
39694;SDS011;25367;-35.352;149.036;2022-10-16T15:09:56;1.38;;;0.43;;